Time;durP1;ratioP1;P1;durP2;ratioP2;P2;SDS_P1;SDS_P2;PMS_P1;PMS_P2;Temp;Humidity;BMP_temperature;BMP_pressure;BME280_temperature;BME280_humidity;BME280_pressure;Samples;Min_cycle;Max_cycle;Signal;HPM_P1;HPM_P2
2024/04/02 00:01:19;;;;;;;21.40;3.30;;;;;;;16.21;82.76;98721.67;105113;1264;99769;-78
2024/04/02 00:04:13;;;;;;;13.50;4.30;;;;;;;16.14;83.26;98730.56;105105;1264;102745;-79
2024/04/02 00:06:58;;;;;;;19.30;3.30;;;;;;;16.07;83.89;98732.19;105238;1275;99726;-79
2024/04/02 00:09:43;;;;;;;15.40;3.30;;;;;;;15.99;84.25;98734.77;105539;1263;99879;-79
2024/04/02 00:15:13;;;;;;;16.00;3.30;;;;;;;15.80;85.56;98742.80;102542;1292;636516;-80
2024/04/02 00:17:59;;;;;;;11.10;4.00;;;;;;;15.72;85.87;98746.13;104880;1269;97253;-80
2024/04/02 00:20:45;;;;;;;10.10;2.80;;;;;;;15.68;86.29;98743.63;104905;1269;95954;-79
2024/04/02 00:23:30;;;;;;;8.50;2.70;;;;;;;15.62;86.89;98744.41;104787;1267;98663;-79
2024/04/02 00:26:16;;;;;;;8.80;2.60;;;;;;;15.56;87.45;98743.09;104761;1269;101001;-79
2024/04/02 00:29:01;;;;;;;8.90;2.90;;;;;;;15.47;87.97;98748.83;104711;1267;158661;-79
2024/04/02 00:31:47;;;;;;;10.60;2.80;;;;;;;15.39;88.26;98759.88;104973;1263;95884;-79
2024/04/02 00:34:32;;;;;;;7.30;2.30;;;;;;;15.35;88.80;98762.92;105083;1266;95909;-78
2024/04/02 00:37:18;;;;;;;8.30;2.50;;;;;;;15.35;89.23;98750.58;104781;1263;99907;-79
2024/04/02 00:40:04;;;;;;;8.80;2.50;;;;;;;15.33;89.54;98732.48;105607;1260;99438;-79
2024/04/02 00:42:49;;;;;;;7.00;1.80;;;;;;;15.30;89.67;98729.13;105106;1261;98476;-78
2024/04/02 00:45:35;;;;;;;6.10;2.40;;;;;;;15.26;89.69;98740.44;105265;1263;96646;-79
2024/04/02 00:48:22;;;;;;;7.20;2.00;;;;;;;15.20;89.83;98732.59;105126;1264;97098;-79
2024/04/02 00:51:07;;;;;;;4.50;1.60;;;;;;;15.15;89.59;98726.15;104966;1263;100605;-79
2024/04/02 00:53:53;;;;;;;6.90;2.00;;;;;;;15.13;89.64;98725.38;105200;1263;99174;-79
2024/04/02 00:56:41;;;;;;;9.10;1.90;;;;;;;15.09;89.32;98724.52;105301;1264;97841;-79
2024/04/02 00:59:27;;;;;;;5.50;2.10;;;;;;;15.03;89.22;98717.77;105223;1264;97018;-80
2024/04/02 01:02:13;;;;;;;5.50;1.80;;;;;;;15.01;89.03;98714.46;105046;1265;96595;-79
2024/04/02 01:04:59;;;;;;;6.80;1.70;;;;;;;14.95;88.70;98717.33;105106;1263;101210;-79
2024/04/02 01:07:45;;;;;;;4.60;1.80;;;;;;;14.93;88.75;98705.89;105451;1263;100126;-80
2024/04/02 01:10:31;;;;;;;7.60;1.90;;;;;;;14.94;88.72;98702.08;105774;1265;97737;-80
2024/04/02 01:13:17;;;;;;;4.90;1.60;;;;;;;14.92;88.23;98709.23;106535;1255;96724;-80
2024/04/02 01:16:04;;;;;;;5.10;1.70;;;;;;;14.87;88.25;98703.81;106465;1254;97052;-78
2024/04/02 01:18:49;;;;;;;6.50;1.80;;;;;;;14.80;88.00;98705.22;105914;1254;99968;-78
2024/04/02 01:21:35;;;;;;;7.60;1.80;;;;;;;14.71;87.87;98699.40;105591;1257;100090;-80
2024/04/02 01:24:21;;;;;;;4.40;1.90;;;;;;;14.64;87.76;98698.37;105707;1251;97672;-80
2024/04/02 01:27:06;;;;;;;7.60;1.70;;;;;;;14.60;88.10;98701.63;105802;1258;97062;-78
2024/04/02 01:29:51;;;;;;;4.00;1.60;;;;;;;14.60;88.28;98696.19;105770;1255;97132;-78
2024/04/02 01:32:37;;;;;;;6.50;1.80;;;;;;;14.59;88.17;98691.65;105565;1251;100006;-79
2024/04/02 01:35:22;;;;;;;6.00;1.70;;;;;;;14.57;88.12;98702.46;105535;1254;99149;-78
2024/04/02 01:38:08;;;;;;;7.60;1.70;;;;;;;14.56;88.25;98713.45;105583;1254;99080;-78
2024/04/02 01:40:53;;;;;;;7.40;2.40;;;;;;;14.56;88.33;98728.60;105775;1254;97164;-79
2024/04/02 01:43:39;;;;;;;5.00;1.70;;;;;;;14.53;88.33;98732.95;105845;1256;97499;-79
2024/04/02 01:46:24;;;;;;;10.50;2.20;;;;;;;14.51;88.50;98726.19;105706;1254;101799;-79
2024/04/02 01:49:10;;;;;;;9.00;2.00;;;;;;;14.47;88.19;98723.14;105651;1259;99158;-79
2024/04/02 01:51:55;;;;;;;5.90;1.90;;;;;;;14.44;88.39;98727.64;105838;1257;98981;-80
2024/04/02 01:54:40;;;;;;;8.90;2.10;;;;;;;14.45;88.45;98728.45;105810;1254;96605;-79
2024/04/02 01:57:26;;;;;;;2.90;1.50;;;;;;;14.45;88.36;98723.33;105903;1254;97101;-79
2024/04/02 02:00:14;;;;;;;5.10;1.70;;;;;;;14.43;88.37;98713.73;105899;1256;101434;-79
2024/04/02 02:02:59;;;;;;;6.20;1.70;;;;;;;14.40;88.19;98709.55;105916;1254;100345;-79
2024/04/02 02:05:48;;;;;;;7.10;1.50;;;;;;;14.38;88.23;98709.43;105847;1256;98274;-79
2024/04/02 02:08:33;;;;;;;4.70;1.60;;;;;;;14.36;88.08;98705.42;105504;1259;97082;-77
2024/04/02 02:11:18;;;;;;;5.90;1.80;;;;;;;14.32;87.77;98709.66;105526;1254;97098;-79
2024/04/02 02:14:04;;;;;;;7.00;2.00;;;;;;;14.28;87.62;98723.27;106066;1255;101062;-80
2024/04/02 02:16:50;;;;;;;5.30;1.50;;;;;;;14.25;87.76;98723.34;106117;1256;99106;-79
2024/04/02 02:19:35;;;;;;;9.70;2.20;;;;;;;14.25;87.75;98722.44;105991;1256;99021;-80
2024/04/02 02:22:21;;;;;;;5.50;1.90;;;;;;;14.24;87.45;98719.23;106095;1256;96728;-79
2024/04/02 02:25:06;;;;;;;4.30;2.00;;;;;;;14.23;87.44;98721.92;106104;1256;96490;-79
2024/04/02 02:27:53;;;;;;;3.60;1.80;;;;;;;14.21;87.24;98722.28;106095;1254;101739;-80
2024/04/02 02:30:39;;;;;;;5.40;1.90;;;;;;;14.21;87.34;98721.85;106046;1251;99228;-80
2024/04/02 02:33:24;;;;;;;9.10;3.00;;;;;;;14.20;87.28;98722.39;106023;1252;97713;-80
2024/04/02 02:36:10;;;;;;;7.30;2.20;;;;;;;14.18;87.16;98718.98;106018;1255;96613;-80
2024/04/02 02:38:55;;;;;;;5.30;2.10;;;;;;;14.15;87.13;98719.10;106009;1251;97084;-80
2024/04/02 02:41:41;;;;;;;6.30;1.90;;;;;;;14.14;87.35;98722.33;105995;1256;100850;-80
2024/04/02 02:44:27;;;;;;;3.50;2.00;;;;;;;14.13;87.55;98725.48;105801;1255;99131;-79
2024/04/02 02:47:12;;;;;;;7.80;2.20;;;;;;;14.11;87.38;98729.84;105859;1257;99395;-80
2024/04/02 02:49:58;;;;;;;4.20;2.40;;;;;;;14.07;87.36;98727.10;106130;1254;96716;-80
2024/04/02 02:52:44;;;;;;;7.10;2.00;;;;;;;14.04;87.36;98726.25;105682;1257;97115;-79
2024/04/02 02:55:30;;;;;;;5.20;2.20;;;;;;;14.03;87.31;98728.08;105844;1256;101394;-79
2024/04/02 02:58:15;;;;;;;6.70;3.40;;;;;;;14.02;87.32;98729.21;105829;1257;99195;-79
2024/04/02 03:01:07;;;;;;;5.00;2.20;;;;;;;14.01;87.44;98731.94;105851;1257;98475;-79
2024/04/02 03:03:53;;;;;;;7.40;4.70;;;;;;;13.99;87.55;98728.52;105849;1254;96983;-78
2024/04/02 03:06:38;;;;;;;13.90;3.60;;;;;;;13.95;87.59;98721.33;105541;1257;96537;-79
2024/04/02 03:09:24;;;;;;;5.90;3.40;;;;;;;13.91;87.77;98714.67;105762;1256;99994;-79
2024/04/02 03:12:09;;;;;;;5.60;2.00;;;;;;;13.90;87.36;98710.02;105867;1256;100305;-79
2024/04/02 03:14:55;;;;;;;5.10;2.00;;;;;;;13.87;86.92;98704.08;105687;1259;98959;-80
2024/04/02 03:17:40;;;;;;;5.70;2.20;;;;;;;13.86;86.86;98701.00;106624;1259;96662;-80
2024/04/02 03:20:26;;;;;;;4.50;2.40;;;;;;;13.83;86.63;98700.05;106281;1253;96725;-80
2024/04/02 03:23:12;;;;;;;8.40;2.20;;;;;;;13.81;86.81;98699.38;106317;1253;101704;-80
2024/04/02 03:26:00;;;;;;;6.90;1.80;;;;;;;13.80;86.60;98702.27;106255;1253;99205;-79
2024/04/02 03:28:46;;;;;;;5.70;1.70;;;;;;;13.73;86.31;98706.19;106281;1253;97742;-80
2024/04/02 03:31:31;;;;;;;6.40;1.60;;;;;;;13.63;85.95;98706.72;106329;1258;97198;-80
2024/04/02 03:34:19;;;;;;;2.60;1.70;;;;;;;13.55;85.99;98706.46;106484;1253;96712;-79
2024/04/02 03:37:05;;;;;;;3.60;1.60;;;;;;;13.49;85.87;98701.70;105717;1253;99958;-79
2024/04/02 03:39:50;;;;;;;4.60;1.70;;;;;;;13.47;86.18;98698.14;105531;1253;99877;-79
2024/04/02 03:42:36;;;;;;;3.70;1.70;;;;;;;13.46;86.08;98696.84;105426;1254;97721;-78
2024/04/02 03:45:21;;;;;;;5.10;1.60;;;;;;;13.44;86.01;98709.30;105377;1259;96615;-79
2024/04/02 03:48:08;;;;;;;2.90;1.50;;;;;;;13.43;86.06;98715.84;105647;1258;97142;-79
2024/04/02 03:50:54;;;;;;;3.80;1.40;;;;;;;13.37;85.93;98711.95;105683;1253;100695;-79
2024/04/02 03:53:39;;;;;;;3.00;1.50;;;;;;;13.33;86.29;98706.95;105716;1259;100431;-79
2024/04/02 03:56:25;;;;;;;5.30;2.10;;;;;;;13.24;86.34;98707.44;105599;1257;99575;-79
2024/04/02 03:59:10;;;;;;;4.90;1.70;;;;;;;13.17;86.64;98718.69;105529;1258;96723;-80
2024/04/02 04:01:55;;;;;;;2.20;1.80;;;;;;;13.13;86.49;98718.90;105415;1257;97120;-79
2024/04/02 04:04:41;;;;;;;2.00;1.70;;;;;;;13.07;86.77;98715.05;105401;1257;100039;-79
2024/04/02 04:07:26;;;;;;;2.40;1.50;;;;;;;13.00;87.11;98715.84;105486;1253;99259;-79
2024/04/02 04:10:12;;;;;;;3.80;1.80;;;;;;;12.94;87.53;98727.16;105598;1257;97858;-80
2024/04/02 04:12:58;;;;;;;3.80;1.70;;;;;;;12.89;87.53;98749.77;105665;1258;96621;-79
2024/04/02 04:15:54;;;;;;;5.90;1.60;;;;;;;12.85;87.78;98757.34;105859;1256;96510;-79
2024/04/02 04:18:40;;;;;;;3.70;1.40;;;;;;;12.81;88.12;98756.68;105776;1257;99988;-79
2024/04/02 04:21:25;;;;;;;2.20;1.60;;;;;;;12.76;88.36;98760.42;106538;1252;100158;-80
2024/04/02 04:24:11;;;;;;;2.70;1.70;;;;;;;12.73;88.90;98764.88;106825;1254;97784;-80
2024/04/02 04:26:56;;;;;;;4.60;1.50;;;;;;;12.70;89.30;98759.73;106546;1256;97844;-80
2024/04/02 04:29:42;;;;;;;2.80;1.80;;;;;;;12.68;89.84;98758.18;106652;1254;97042;-80
2024/04/02 04:32:27;;;;;;;4.80;1.50;;;;;;;12.64;90.11;98763.73;106726;1256;100103;-80
2024/04/02 04:35:13;;;;;;;2.20;1.30;;;;;;;12.58;91.00;98760.83;106864;1256;100330;-80
2024/04/02 04:37:59;;;;;;;1.80;1.60;;;;;;;12.54;91.98;98756.30;106760;1254;97765;-80
2024/04/02 04:40:45;;;;;;;1.90;1.30;;;;;;;12.50;92.50;98763.55;106673;1253;96535;-80
2024/04/02 04:43:31;;;;;;;2.40;1.40;;;;;;;12.44;93.18;98774.17;106482;1254;96541;-80
2024/04/02 04:46:17;;;;;;;2.20;1.50;;;;;;;12.37;93.42;98782.45;106795;1252;101316;-83
2024/04/02 04:49:03;;;;;;;2.30;1.70;;;;;;;12.30;94.28;98782.44;106300;1254;100333;-83
2024/04/02 04:51:48;;;;;;;2.50;1.30;;;;;;;12.25;94.71;98783.67;106276;1254;98003;-83
2024/04/02 04:54:34;;;;;;;2.30;2.00;;;;;;;12.20;95.56;98779.89;106491;1256;97996;-82
2024/04/02 04:57:20;;;;;;;3.40;2.10;;;;;;;12.19;95.78;98775.96;106442;1254;97958;-83
2024/04/02 05:00:06;;;;;;;4.70;2.00;;;;;;;12.15;96.18;98773.09;106616;1251;102055;-85
2024/04/02 05:02:52;;;;;;;5.20;1.90;;;;;;;12.09;96.52;98770.71;106298;1259;101263;-88
2024/04/02 05:05:38;;;;;;;2.30;2.10;;;;;;;12.07;96.95;98763.70;106646;1263;97815;-90
2024/04/02 05:08:25;;;;;;;2.90;2.00;;;;;;;12.04;97.22;98755.54;106310;1256;98292;-80
2024/04/02 05:11:11;;;;;;;3.10;2.10;;;;;;;12.00;97.74;98754.44;106417;1262;97832;-79
2024/04/02 05:13:57;;;;;;;2.20;1.80;;;;;;;11.98;98.11;98756.30;106079;1257;102562;-80
2024/04/02 05:16:45;;;;;;;2.90;1.80;;;;;;;11.96;98.28;98756.20;105646;1257;99289;-79
2024/04/02 05:19:31;;;;;;;3.10;2.10;;;;;;;11.92;98.49;98759.98;105493;1258;99326;-80
2024/04/02 05:22:17;;;;;;;2.50;2.10;;;;;;;11.87;99.07;98759.46;105573;1257;98388;-79
2024/04/02 05:25:03;;;;;;;2.50;1.90;;;;;;;11.86;99.44;98757.17;105496;1259;98007;-79
2024/04/02 05:27:48;;;;;;;3.80;2.70;;;;;;;11.86;99.78;98755.58;105526;1256;102702;-79
2024/04/02 05:30:35;;;;;;;4.80;2.80;;;;;;;11.82;99.87;98760.27;105530;1256;100307;-79
2024/04/02 05:33:20;;;;;;;3.10;2.80;;;;;;;11.77;99.99;98762.81;105418;1256;98045;-79
2024/04/02 05:36:06;;;;;;;2.50;2.30;;;;;;;11.75;100.00;98760.46;105538;1259;98851;-79
2024/04/02 05:38:52;;;;;;;3.50;2.60;;;;;;;11.75;100.00;98769.79;105534;1258;97999;-79
2024/04/02 05:41:37;;;;;;;3.40;3.10;;;;;;;11.74;100.00;98771.55;105475;1258;101371;-76
2024/04/02 05:44:23;;;;;;;2.80;2.60;;;;;;;11.71;100.00;98778.25;105679;1259;100013;-83
2024/04/02 05:47:09;;;;;;;4.90;3.10;;;;;;;11.72;100.00;98786.79;106317;1256;98060;-88
2024/04/02 05:49:54;;;;;;;3.50;2.50;;;;;;;11.72;100.00;98791.56;106003;1256;98050;-86
2024/04/02 05:52:40;;;;;;;3.50;2.90;;;;;;;11.71;100.00;98793.00;105983;1255;98021;-83
2024/04/02 05:55:26;;;;;;;4.00;3.30;;;;;;;11.73;100.00;98792.08;106158;1256;103499;-83
2024/04/02 05:58:12;;;;;;;3.20;2.90;;;;;;;11.71;100.00;98793.52;106137;1256;100599;-82
2024/04/02 06:01:07;;;;;;;4.00;3.50;;;;;;;11.66;100.00;98792.61;106576;1255;98604;-84
2024/04/02 06:03:52;;;;;;;3.20;2.90;;;;;;;11.64;100.00;98791.48;107439;1257;95958;-84
2024/04/02 06:06:38;;;;;;;5.00;3.50;;;;;;;11.61;100.00;98795.98;106100;1257;97949;-81
2024/04/02 06:09:25;;;;;;;3.40;2.90;;;;;;;11.60;100.00;98802.17;106085;1259;101373;-86
2024/04/02 06:12:11;;;;;;;3.70;3.20;;;;;;;11.58;100.00;98809.43;106316;1259;100277;-86
2024/04/02 06:14:57;;;;;;;3.80;2.70;;;;;;;11.56;100.00;98810.03;105919;1257;98798;-86
2024/04/02 06:17:43;;;;;;;3.60;3.30;;;;;;;11.56;100.00;98805.42;106399;1256;98056;-86
2024/04/02 06:20:33;;;;;;;3.90;3.40;;;;;;;11.57;100.00;98804.12;106236;1256;96558;-86
2024/04/02 06:23:19;;;;;;;3.50;3.00;;;;;;;11.54;100.00;98802.49;106360;1256;102484;-87
2024/04/02 06:26:05;;;;;;;3.90;3.40;;;;;;;11.51;100.00;98807.67;106021;1256;100444;-86
2024/04/02 06:28:51;;;;;;;5.20;3.20;;;;;;;11.48;100.00;98814.80;106130;1260;99142;-85
2024/04/02 06:31:36;;;;;;;3.80;3.50;;;;;;;11.48;100.00;98821.45;106224;1256;98659;-85
2024/04/02 06:34:25;;;;;;;3.50;3.20;;;;;;;11.49;100.00;98818.94;105995;1259;97885;-85
2024/04/02 06:37:11;;;;;;;6.40;3.60;;;;;;;11.46;100.00;98817.28;106378;1256;103581;-84
2024/04/02 06:40:00;;;;;;;4.20;3.60;;;;;;;11.43;100.00;98808.90;106299;1256;100315;-86
2024/04/02 06:42:46;;;;;;;4.10;3.40;;;;;;;11.41;100.00;98809.88;106302;1259;99404;-86
2024/04/02 06:45:32;;;;;;;4.70;3.20;;;;;;;11.41;100.00;98809.38;106253;1256;98031;-86
2024/04/02 06:48:19;;;;;;;3.30;2.80;;;;;;;11.40;100.00;98807.05;106038;1259;98357;-88
2024/04/02 06:51:10;;;;;;;4.30;3.20;;;;;;;11.39;100.00;98807.41;106369;1257;103929;-83
2024/04/02 06:53:56;;;;;;;2.90;2.20;;;;;;;11.38;100.00;98805.90;106485;1256;99312;-85
2024/04/02 06:56:42;;;;;;;3.30;2.80;;;;;;;11.33;100.00;98810.23;106342;1256;98331;-85
2024/04/02 06:59:29;;;;;;;2.80;2.50;;;;;;;11.30;100.00;98809.64;105970;1262;98036;-82
2024/04/02 07:02:14;;;;;;;3.40;2.80;;;;;;;11.32;100.00;98807.84;106234;1256;97961;-83
2024/04/02 07:05:01;;;;;;;3.20;2.80;;;;;;;11.33;100.00;98806.04;106116;1255;102445;-85
2024/04/02 07:07:46;;;;;;;3.40;3.10;;;;;;;11.31;100.00;98807.56;106099;1260;100346;-84
2024/04/02 07:10:33;;;;;;;4.20;3.80;;;;;;;11.30;100.00;98816.00;105980;1257;98876;-85
2024/04/02 07:13:19;;;;;;;3.50;3.00;;;;;;;11.29;100.00;98813.46;106095;1260;98021;-81
2024/04/02 07:16:04;;;;;;;3.30;3.00;;;;;;;11.28;100.00;98814.79;106371;1259;97855;-86
2024/04/02 07:18:50;;;;;;;3.10;2.70;;;;;;;11.30;100.00;98816.49;106641;1256;101344;-87
2024/04/02 07:21:37;;;;;;;2.90;2.60;;;;;;;11.33;100.00;98818.48;106425;1260;100281;-86
2024/04/02 07:24:47;;;;;;;4.00;2.90;;;;;;;11.33;100.00;98819.61;106019;1259;100400;-83
2024/04/02 07:27:34;;;;;;;2.90;2.70;;;;;;;11.32;100.00;98823.02;106054;1259;97951;-84
2024/04/02 07:30:20;;;;;;;4.00;2.60;;;;;;;11.30;100.00;98823.58;106212;1257;98371;-87
2024/04/02 07:33:09;;;;;;;3.20;2.30;;;;;;;11.30;100.00;98825.55;105981;1262;110139;-84
2024/04/02 07:35:55;;;;;;;3.10;2.60;;;;;;;11.31;100.00;98830.94;106025;1262;99092;-83
2024/04/02 07:38:41;;;;;;;2.80;2.60;;;;;;;11.32;100.00;98833.73;106141;1259;98996;-84
2024/04/02 07:41:27;;;;;;;3.50;2.50;;;;;;;11.32;100.00;98837.98;106240;1259;98044;-84
2024/04/02 07:44:12;;;;;;;3.20;2.80;;;;;;;11.32;100.00;98835.45;106220;1257;98410;-81
2024/04/02 07:46:59;;;;;;;2.90;2.70;;;;;;;11.31;100.00;98830.17;106236;1256;102614;-83
2024/04/02 07:49:44;;;;;;;2.70;2.50;;;;;;;11.28;100.00;98828.18;106119;1262;99125;-82
2024/04/02 07:52:30;;;;;;;3.70;3.40;;;;;;;11.29;100.00;98827.69;106405;1256;99015;-84
2024/04/02 07:55:16;;;;;;;3.50;3.20;;;;;;;11.30;100.00;98829.11;106437;1256;98006;-81
2024/04/02 07:58:02;;;;;;;3.00;2.80;;;;;;;11.30;100.00;98824.70;106262;1259;98503;-80
2024/04/02 08:00:47;;;;;;;3.20;2.80;;;;;;;11.32;100.00;98830.63;106510;1253;101469;-80
2024/04/02 08:03:32;;;;;;;3.40;3.00;;;;;;;11.34;100.00;98833.94;106377;1253;109126;-80
2024/04/02 08:06:18;;;;;;;2.40;2.20;;;;;;;11.32;100.00;98836.42;106523;1254;98075;-81
2024/04/02 08:09:03;;;;;;;4.10;3.40;;;;;;;11.28;100.00;98831.29;105885;1253;97961;-81
2024/04/02 08:11:49;;;;;;;4.60;3.70;;;;;;;11.23;100.00;98833.06;106253;1254;97749;-81
2024/04/02 08:14:34;;;;;;;4.10;3.10;;;;;;;11.19;100.00;98832.43;106275;1259;101318;-81
2024/04/02 08:17:20;;;;;;;3.80;3.50;;;;;;;11.13;100.00;98827.77;106250;1259;100304;-79
2024/04/02 08:20:06;;;;;;;3.30;3.00;;;;;;;11.10;100.00;98830.51;106188;1256;130197;-81
2024/04/02 08:22:54;;;;;;;3.70;3.30;;;;;;;11.12;100.00;98834.46;106188;1260;97960;-81
2024/04/02 08:25:41;;;;;;;4.70;3.50;;;;;;;11.13;100.00;98832.35;106296;1259;98592;-81
2024/04/02 08:28:27;;;;;;;4.50;3.10;;;;;;;11.17;100.00;98842.51;106217;1257;101546;-80
2024/04/02 08:31:13;;;;;;;3.70;3.00;;;;;;;11.17;100.00;98850.33;106135;1256;101288;-80
2024/04/02 08:33:59;;;;;;;4.00;3.60;;;;;;;11.17;100.00;98859.44;106041;1259;97936;-80
2024/04/02 08:36:44;;;;;;;5.00;4.30;;;;;;;11.13;100.00;98860.38;106451;1257;98124;-80
2024/04/02 08:39:29;;;;;;;6.20;4.60;;;;;;;11.10;100.00;98863.73;106419;1255;96751;-79
2024/04/02 08:42:15;;;;;;;5.60;4.70;;;;;;;11.07;100.00;98860.55;106190;1259;102233;-79
2024/04/02 08:45:05;;;;;;;5.30;4.80;;;;;;;11.08;100.00;98859.80;106177;1258;99900;-81
2024/04/02 08:47:51;;;;;;;5.80;4.90;;;;;;;11.07;100.00;98858.09;106403;1260;100636;-91
2024/04/02 08:50:38;;;;;;;6.00;5.40;;;;;;;11.05;100.00;98855.14;105958;1271;98080;-85
2024/04/02 08:53:24;;;;;;;10.40;5.20;;;;;;;11.04;100.00;98855.75;106518;1260;96557;-86
2024/04/02 08:56:11;;;;;;;5.40;4.80;;;;;;;11.03;100.00;98861.96;106321;1256;101333;-81
2024/04/02 08:59:02;;;;;;;6.00;5.30;;;;;;;11.04;100.00;98868.56;106066;1257;99240;-83
2024/04/02 09:01:49;;;;;;;5.60;5.10;;;;;;;11.04;100.00;98878.33;106040;1261;99414;-83
2024/04/02 09:04:35;;;;;;;6.30;5.70;;;;;;;11.05;100.00;98890.23;106196;1262;99139;-85
2024/04/02 09:07:21;;;;;;;7.60;5.80;;;;;;;11.07;100.00;98905.00;106268;1258;97923;-84
2024/04/02 09:10:07;;;;;;;8.70;5.60;;;;;;;11.08;100.00;98913.02;106553;1259;103541;-85
2024/04/02 09:12:53;;;;;;;6.90;6.10;;;;;;;11.05;100.00;98921.48;105926;1259;99174;-83
2024/04/02 09:15:40;;;;;;;6.70;6.00;;;;;;;10.97;100.00;98920.52;106315;1256;99889;-89
2024/04/02 09:18:31;;;;;;;9.20;6.60;;;;;;;10.94;100.00;98922.71;106798;1255;97974;-89
2024/04/02 09:21:17;;;;;;;8.20;6.70;;;;;;;10.95;100.00;98925.30;106648;1257;98025;-87
2024/04/02 09:24:04;;;;;;;7.90;6.10;;;;;;;10.93;100.00;98924.66;106518;1262;103684;-91
2024/04/02 09:26:52;;;;;;;7.50;6.00;;;;;;;10.92;100.00;98924.90;107607;1254;99648;-89
2024/04/02 09:29:58;;;;;;;8.10;6.40;;;;;;;10.91;100.00;98927.60;106189;1256;98846;-86
2024/04/02 09:32:45;;;;;;;8.00;7.00;;;;;;;10.90;100.00;98931.16;106542;1257;98014;-89
2024/04/02 09:35:46;;;;;;;8.70;6.80;;;;;;;10.94;100.00;98938.23;105974;1266;96643;-86
2024/04/02 09:38:36;;;;;;;8.30;6.90;;;;;;;10.94;100.00;98946.38;106416;1257;101407;-91
2024/04/02 09:41:26;;;;;;;8.60;7.00;;;;;;;10.93;100.00;98952.69;106117;1257;99101;-85
2024/04/02 09:44:26;;;;;;;10.70;6.70;;;;;;;10.93;100.00;98960.08;106308;1257;98483;-88
2024/04/02 09:47:13;;;;;;;10.20;7.70;;;;;;;10.93;100.00;98963.55;106374;1262;97968;-89
2024/04/02 09:50:03;;;;;;;8.30;7.10;;;;;;;10.96;100.00;98970.12;106101;1257;97953;-82
2024/04/02 09:52:52;;;;;;;9.10;7.90;;;;;;;10.98;100.00;98972.25;106051;1257;101464;-86
2024/04/02 09:55:40;;;;;;;9.70;8.50;;;;;;;10.99;100.00;98978.11;105778;1257;101656;-85
2024/04/02 09:58:27;;;;;;;8.80;7.10;;;;;;;11.01;100.00;98977.21;105929;1264;100156;-84
2024/04/02 10:01:16;;;;;;;9.00;7.40;;;;;;;11.00;100.00;98978.52;106448;1259;97986;-86
2024/04/02 10:04:09;;;;;;;10.60;7.90;;;;;;;11.01;100.00;98985.27;106001;1259;98046;-87
2024/04/02 10:06:57;;;;;;;9.50;7.80;;;;;;;10.99;100.00;98982.89;106007;1260;102692;-83
2024/04/02 10:09:44;;;;;;;9.20;7.60;;;;;;;11.00;100.00;98987.67;106239;1265;100400;-86
2024/04/02 10:12:32;;;;;;;11.40;8.60;;;;;;;10.99;100.00;98986.81;107067;1263;99303;-87
2024/04/02 10:15:18;;;;;;;10.80;8.20;;;;;;;10.98;100.00;98990.30;105850;1259;97971;-82
2024/04/02 10:18:04;;;;;;;10.80;9.00;;;;;;;10.95;100.00;98991.16;105841;1260;98586;-85
2024/04/02 10:20:57;;;;;;;9.40;8.10;;;;;;;10.97;100.00;98993.23;105838;1259;102401;-84
2024/04/02 10:23:43;;;;;;;10.20;8.20;;;;;;;10.98;100.00;98992.72;105798;1259;99103;-83
2024/04/02 10:26:32;;;;;;;10.90;9.20;;;;;;;11.00;100.00;98998.34;105716;1267;99802;-83
2024/04/02 10:29:28;;;;;;;11.20;8.20;;;;;;;11.01;100.00;99002.20;106219;1259;98017;-82
2024/04/02 10:32:14;;;;;;;11.70;8.40;;;;;;;11.03;100.00;99005.98;106058;1264;98412;-81
2024/04/02 10:34:59;;;;;;;11.90;8.80;;;;;;;11.02;100.00;99008.91;106273;1262;101486;-81
2024/04/02 10:37:47;;;;;;;10.00;8.20;;;;;;;11.00;100.00;99014.09;106237;1259;99158;-81
2024/04/02 10:40:39;;;;;;;11.70;8.30;;;;;;;11.02;100.00;99014.59;105925;1264;98617;-85
2024/04/02 10:43:25;;;;;;;11.90;7.80;;;;;;;11.06;100.00;99017.02;106117;1259;97931;-86
2024/04/02 10:46:11;;;;;;;9.50;7.90;;;;;;;11.07;100.00;99020.45;106314;1260;98433;-87
2024/04/02 10:49:03;;;;;;;9.40;6.90;;;;;;;11.08;100.00;99023.74;106277;1259;103095;-88
2024/04/02 10:51:49;;;;;;;8.30;6.60;;;;;;;11.13;100.00;99023.80;106229;1259;100379;-88
2024/04/02 10:54:37;;;;;;;10.20;6.50;;;;;;;11.19;100.00;99027.09;106196;1259;98927;-85
2024/04/02 10:57:25;;;;;;;8.30;7.30;;;;;;;11.21;100.00;99027.84;106162;1259;99302;-86
2024/04/02 11:00:14;;;;;;;8.00;7.10;;;;;;;11.22;100.00;99032.98;106304;1260;98512;-86
2024/04/02 11:03:00;;;;;;;10.20;7.40;;;;;;;11.26;100.00;99033.13;105862;1262;104122;-85
2024/04/02 11:05:46;;;;;;;11.80;7.70;;;;;;;11.29;100.00;99038.90;105914;1259;101514;-84
2024/04/02 11:08:37;;;;;;;8.10;6.70;;;;;;;11.31;100.00;99040.44;106041;1265;98237;-83
2024/04/02 11:11:24;;;;;;;7.80;7.10;;;;;;;11.30;100.00;99043.00;105919;1264;98523;-88
2024/04/02 11:14:14;;;;;;;9.70;6.60;;;;;;;11.31;100.00;99038.57;105991;1259;98417;-89
2024/04/02 11:17:00;;;;;;;8.30;6.90;;;;;;;11.35;100.00;99037.27;105769;1260;102157;-81
2024/04/02 11:19:46;;;;;;;9.80;6.10;;;;;;;11.35;100.00;99034.48;105678;1263;98984;-84
2024/04/02 11:25:40;;;;;;;7.80;6.00;;;;;;;11.29;100.00;99043.23;105739;1259;98113;-82
2024/04/02 11:28:26;;;;;;;9.90;6.70;;;;;;;11.27;100.00;99048.48;105822;1263;99164;-83
2024/04/02 11:31:14;;;;;;;10.20;6.80;;;;;;;11.24;100.00;99056.23;105897;1259;102111;-85
2024/04/02 11:34:03;;;;;;;7.00;5.80;;;;;;;11.22;100.00;99056.61;106024;1261;99133;-84
2024/04/02 11:36:49;;;;;;;10.00;6.40;;;;;;;11.23;100.00;99060.50;105804;1259;98799;-87
2024/04/02 11:39:35;;;;;;;8.80;6.10;;;;;;;11.26;100.00;99059.44;105978;1264;98004;-88
2024/04/02 11:42:22;;;;;;;20.80;11.40;;;;;;;11.28;100.00;99060.27;105581;1259;98046;-86
2024/04/02 11:45:09;;;;;;;9.60;6.70;;;;;;;11.29;100.00;99059.59;105595;1259;102744;-86
2024/04/02 11:47:55;;;;;;;7.80;5.90;;;;;;;11.31;100.00;99062.70;105893;1259;100266;-86
2024/04/02 11:50:41;;;;;;;11.00;7.40;;;;;;;11.34;100.00;99063.15;105826;1262;106477;-85
2024/04/02 11:53:26;;;;;;;10.40;7.60;;;;;;;11.37;100.00;99066.94;105667;1259;98853;-86
2024/04/02 11:56:13;;;;;;;9.50;7.90;;;;;;;11.39;100.00;99068.44;105920;1262;97904;-82
2024/04/02 12:02:22;;;;;;;12.10;8.10;;;;;;;11.39;100.00;99073.92;105579;1268;101641;-84
2024/04/02 12:05:10;;;;;;;9.20;7.30;;;;;;;11.39;100.00;99077.55;105809;1259;99093;-84
2024/04/02 12:07:56;;;;;;;12.10;6.80;;;;;;;11.39;100.00;99075.04;106083;1264;98069;-89
2024/04/02 12:10:42;;;;;;;8.30;6.00;;;;;;;11.41;100.00;99076.45;105784;1260;98440;-89
2024/04/02 12:13:29;;;;;;;7.90;4.40;;;;;;;11.42;100.00;99079.33;105521;1262;101921;-86
2024/04/02 12:16:15;;;;;;;5.50;4.50;;;;;;;11.43;100.00;99079.15;106176;1260;101693;-91
2024/04/02 12:19:02;;;;;;;6.70;4.30;;;;;;;11.45;100.00;99077.10;106158;1259;99207;-87
2024/04/02 12:21:49;;;;;;;5.40;4.60;;;;;;;11.47;100.00;99076.25;105646;1266;98037;-84
2024/04/02 12:24:36;;;;;;;5.40;4.60;;;;;;;11.50;100.00;99073.85;105935;1259;99168;-88
2024/04/02 12:27:24;;;;;;;8.50;4.40;;;;;;;11.54;100.00;99076.48;106031;1264;102651;-88
2024/04/02 12:30:11;;;;;;;6.10;3.40;;;;;;;11.58;100.00;99081.09;105947;1260;102146;-88
2024/04/02 12:32:56;;;;;;;4.50;3.40;;;;;;;11.63;100.00;99081.33;105705;1264;108447;-85
2024/04/02 12:35:42;;;;;;;6.40;4.50;;;;;;;11.69;100.00;99081.59;105754;1264;97997;-83
2024/04/02 12:38:28;;;;;;;6.90;4.30;;;;;;;11.73;100.00;99082.89;105654;1264;98472;-87
2024/04/02 12:41:16;;;;;;;10.30;5.20;;;;;;;11.78;100.00;99083.77;105662;1261;110710;-83
2024/04/02 12:44:02;;;;;;;7.50;5.20;;;;;;;11.81;99.84;99085.55;105782;1261;100376;-84
2024/04/02 12:46:48;;;;;;;5.60;4.40;;;;;;;11.84;99.43;99087.92;106016;1261;99006;-85
2024/04/02 12:49:35;;;;;;;12.00;8.10;;;;;;;11.88;99.52;99088.50;105971;1266;97982;-90
2024/04/02 12:52:21;;;;;;;9.20;5.70;;;;;;;11.94;99.63;99087.70;105743;1261;97994;-85
2024/04/02 12:55:07;;;;;;;7.70;4.90;;;;;;;11.99;99.72;99084.55;105940;1260;103012;-84